Latest Weather Observations for Maryborough

IDQ60801

Issued at 4:02 pm EST Wednesday 5 August 2015 (issued every 30 minutes, with the page automatically refreshed every 10 minutes)

About weather observations | Map of weather stations | Latest weather observations for QLD | Other Formats
Station Details ID: 040126 Name: MARYBOROUGH Lat: -25.52 Lon: 152.72 Height: 10.28 m
Data from the previous 72 hours. | See also: Recent months at Maryborough
Date/Time
EST
Temp
°C
App
Temp
°C
Dew
Point
Rel
Hum
%
Delta-T
°C
Wind Press
QNH
hPa
Press
MSL
hPa
Rain
since 9 am
mm
Dir
 
Spd
km/h
Gust
km/h
Spd
kts
Gust
kts
05/04:00pm 20.5 15.2 -0.7 24 9.3 WSW 17 22 9 12 1013.5 - 0.0
05/03:30pm 20.3 14.9 -1.5 23 9.4 W 17 26 9 14 1013.4 - 0.0
05/03:00pm 20.2 14.8 -1.0 24 9.2 W 17 26 9 14 1013.4 1013.4 0.0
05/02:30pm 20.4 15.5 -0.3 25 9.1 W 15 24 8 13 1013.6 - 0.0
05/02:00pm 20.0 14.0 -1.2 24 9.1 WSW 20 30 11 16 1013.9 - 0.0
05/01:30pm 19.5 13.6 -1.0 25 8.8 WSW 20 28 11 15 1014.3 - 0.0
05/01:00pm 19.1 13.3 -1.4 25 8.7 SW 19 26 10 14 1014.9 - 0.0
05/12:30pm 18.9 12.7 -0.5 27 8.4 SW 22 30 12 16 1015.5 - 0.0
05/12:00pm 17.5 11.4 0.2 31 7.5 WSW 22 30 12 16 1016.1 1016.1 0.0
05/11:30am 17.2 11.6 1.2 34 7.1 W 20 26 11 14 1016.6 - 0.0
05/11:00am 16.0 10.2 -0.2 33 6.9 SW 20 30 11 16 1017.1 - 0.0
05/10:30am 15.4 9.2 -0.4 34 6.6 WSW 22 30 12 16 1017.5 - 0.0
05/10:00am 14.8 8.6 -0.1 36 6.3 SW 22 32 12 17 1018.0 - 0.0
05/09:30am 14.4 7.5 0.3 38 6.0 SW 26 41 14 22 1018.3 - 0.0
05/09:00am 13.2 6.7 0.3 41 5.4 SW 24 35 13 19 1018.4 1018.4 0.2
05/08:30am 12.1 4.8 -0.1 43 5.0 SW 28 35 15 19 1018.2 - 0.2
05/08:00am 11.3 5.2 0.1 46 4.6 SW 22 32 12 17 1018.1 - 0.2
05/07:30am 10.5 4.8 0.3 49 4.1 SW 20 30 11 16 1017.9 - 0.2
05/07:00am 9.5 4.0 0.4 53 3.7 SW 19 24 10 13 1018.0 - 0.2
05/06:30am 8.8 3.6 0.3 55 3.4 SW 17 26 9 14 1017.7 - 0.2
05/06:00am 9.2 3.6 0.9 56 3.4 SW 20 28 11 15 1017.4 1017.4 0.2
05/05:30am 9.5 4.4 0.9 55 3.5 SW 17 26 9 14 1017.2 - 0.2
05/05:00am 9.6 3.9 0.8 54 3.6 SW 20 33 11 18 1017.2 - 0.2
05/04:30am 10.3 3.2 1.4 54 3.7 SW 28 35 15 19 1017.1 - 0.2
05/04:00am 10.1 4.8 1.7 56 3.5 SW 19 28 10 15 1017.1 - 0.2
05/03:30am 10.7 4.5 2.0 55 3.7 SW 24 37 13 20 1017.1 - 0.2
05/03:00am 10.9 5.1 2.2 55 3.7 SW 22 32 12 17 1017.0 1017.0 0.2
05/02:30am 11.4 5.7 2.9 56 3.7 SW 22 30 12 16 1016.9 - 0.2
05/02:00am 12.1 6.4 3.1 54 4.0 SW 22 33 12 18 1017.1 - 0.2
05/01:30am 12.6 7.0 3.3 53 4.1 SW 22 30 12 16 1017.3 - 0.2
05/01:00am 13.2 8.0 3.3 51 4.4 SW 20 33 11 18 1017.5 - 0.2
05/12:30am 13.7 8.7 3.8 51 4.5 SW 19 24 10 13 1017.4 - 0.2
05/12:00am 14.8 9.0 4.2 49 4.9 SW 24 32 13 17 1017.5 1017.5 0.2
 
Date/Time
EST
Temp
°C
App
Temp
°C
Dew
Point
Rel
Hum
%
Delta-T
°C
Wind Press
QNH
hPa
Press
MSL
hPa
Rain
since 9 am
mm
Dir
 
Spd
km/h
Gust
km/h
Spd
kts
Gust
kts
04/11:40pm 15.3 10.7 8.1 62 3.6 WSW 22 32 12 17 1017.4 - 0.2
04/11:30pm 15.6 11.6 8.4 62 3.6 SW 19 28 10 15 1017.4 - 0.2
04/11:00pm 15.7 14.5 12.8 83 1.6 SW 11 15 6 8 1017.4 - 0.2
04/10:30pm 15.2 14.0 12.9 86 1.3 SW 11 13 6 7 1017.4 - 0.2
04/10:24pm 14.7 13.7 12.4 86 1.3 WSW 9 13 5 7 1017.4 - 0.2
04/10:00pm 14.0 12.9 10.6 80 1.8 WSW 7 11 4 6 1017.4 - 0.2
04/09:30pm 15.8 15.2 12.4 80 1.9 SW 7 11 4 6 1017.3 - 0.2
04/09:00pm 16.0 14.3 12.6 80 1.9 SW 13 17 7 9 1017.2 1017.2 0.2
04/08:58pm 16.0 14.4 12.7 81 1.8 SW 13 17 7 9 1017.2 - 0.2
04/08:36pm 16.2 14.7 13.1 82 1.7 SW 13 19 7 10 1017.2 - 0.2
04/08:30pm 15.8 14.3 13.1 84 1.5 S 13 17 7 9 1017.2 - 0.2
04/08:11pm 14.1 14.8 12.1 88 1.1 CALM 0 7 0 4 1017.1 - 0.2
04/08:00pm 14.5 15.2 12.2 86 1.2 CALM 0 4 0 2 1017.0 - 0.2
04/07:47pm 15.1 14.1 12.2 83 1.6 SSE 9 11 5 6 1016.9 - 0.2
04/07:30pm 14.9 13.9 12.4 85 1.4 ESE 9 13 5 7 1016.7 - 0.2
04/07:00pm 15.0 14.5 12.5 85 1.4 SE 7 9 4 5 1016.9 - 0.2
04/06:30pm 15.7 14.9 12.8 83 1.6 SE 9 11 5 6 1016.7 - 0.2
04/06:00pm 16.2 15.7 12.7 80 1.9 SE 7 9 4 5 1016.5 1016.5 0.2
04/05:30pm 17.1 16.0 13.0 77 2.3 ESE 11 13 6 7 1016.3 - 0.2
04/05:00pm 18.0 16.9 13.1 73 2.8 ESE 11 13 6 7 1016.0 - 0.2
04/04:30pm 19.8 18.8 13.5 67 3.6 E 11 15 6 8 1016.0 - 0.2
04/04:00pm 21.3 19.2 13.7 62 4.4 SE 17 24 9 13 1015.8 - 0.2
04/03:30pm 20.6 19.0 12.8 61 4.4 ESE 13 17 7 9 1015.5 - 0.2
04/03:00pm 22.2 20.8 13.5 57 5.0 ESE 13 17 7 9 1015.7 1015.7 0.2
04/02:30pm 21.7 19.7 12.8 57 5.1 SE 15 22 8 12 1016.1 - 0.2
04/02:00pm 21.7 19.2 12.3 55 5.3 S 17 22 9 12 1016.3 - 0.2
04/01:30pm 21.1 19.4 12.3 57 5.0 SSE 13 20 7 11 1016.7 - 0.2
04/01:00pm 21.5 19.6 11.8 54 5.4 SSE 13 19 7 10 1016.8 - 0.2
04/12:30pm 21.1 18.2 10.9 52 5.6 SSE 17 24 9 13 1017.4 - 0.2
04/12:00pm 18.9 16.3 9.4 54 5.0 S 13 19 7 10 1017.9 1017.9 0.2
04/11:30am 17.2 15.3 8.9 58 4.3 WSW 9 13 5 7 1018.4 - 0.2
04/11:00am 15.7 13.7 8.7 63 3.6 WSW 9 13 5 7 1018.9 - 0.2
04/10:30am 14.3 11.9 8.5 68 2.9 SSW 11 15 6 8 1019.1 - 0.2
04/10:00am 14.6 11.6 7.9 64 3.3 SW 13 17 7 9 1019.5 - 0.0
04/09:30am 15.5 11.4 6.0 53 4.6 W 17 22 9 12 1019.7 - 0.0
04/09:00am 15.7 12.7 6.2 53 4.6 WSW 11 15 6 8 1019.2 1019.2 0.0
04/08:30am 15.2 12.1 5.7 53 4.5 WSW 11 19 6 10 1019.3 - 0.0
04/08:00am 14.6 11.7 6.7 59 3.8 SW 11 15 6 8 1018.9 - 0.0
04/07:30am 14.0 11.6 6.8 62 3.5 SW 9 15 5 8 1018.6 - 0.0
04/07:00am 13.9 11.8 6.5 61 3.6 WSW 7 11 4 6 1018.2 - 0.0
04/06:30am 14.0 11.5 6.4 60 3.6 SW 9 11 5 6 1018.1 - 0.0
04/06:00am 13.9 11.9 7.2 64 3.3 WSW 7 11 4 6 1017.5 1017.5 0.0
04/05:30am 13.3 11.0 7.5 68 2.8 SSW 9 13 5 7 1017.2 - 0.0
04/05:00am 13.6 11.1 8.4 71 2.6 SW 11 15 6 8 1016.8 - 0.0
04/04:30am 13.7 11.5 9.4 75 2.2 WSW 11 15 6 8 1016.5 - 0.0
04/04:00am 12.7 11.1 10.2 85 1.3 SSW 9 13 5 7 1016.4 - 0.0
04/03:34am 12.1 12.7 11.8 98 0.2 CALM 0 6 0 3 1016.6 - 0.0
04/03:30am 12.7 13.5 12.4 98 0.2 CALM 0 4 0 2 1016.6 - 0.0
04/03:15am 12.7 12.2 12.2 97 0.3 N 6 7 3 4 1016.5 - 0.0
04/03:00am 12.2 11.6 11.6 96 0.3 N 6 7 3 4 1016.6 1016.6 0.0
04/02:55am 12.5 12.0 11.9 96 0.3 N 6 7 3 4 1016.5 - 0.0
04/02:30am 13.2 13.0 12.9 98 0.2 N 6 7 3 4 1016.7 - 0.0
04/02:00am 14.0 13.9 13.8 99 0.1 N 7 7 4 4 1016.7 - 0.0
04/01:30am 13.9 13.9 13.6 98 0.2 N 6 7 3 4 1016.6 - 0.0
04/01:00am 13.2 12.8 12.4 95 0.4 N 6 7 3 4 1016.8 - 0.0
04/12:30am 14.6 15.1 14.1 97 0.3 NNE 4 9 2 5 1016.8 - 0.0
04/12:00am 14.9 15.2 14.6 98 0.2 N 6 7 3 4 1016.9 1016.9 0.0
 
Date/Time
EST
Temp
°C
App
Temp
°C
Dew
Point
Rel
Hum
%
Delta-T
°C
Wind Press
QNH
hPa
Press
MSL
hPa
Rain
since 9 am
mm
Dir
 
Spd
km/h
Gust
km/h
Spd
kts
Gust
kts
03/11:43pm 15.2 15.5 15.0 99 0.1 N 7 11 4 6 1017.0 - 0.0
03/11:30pm 15.9 15.3 15.7 99 0.1 NNE 13 17 7 9 1016.9 - 0.0
03/11:21pm 15.8 15.2 15.6 99 0.1 NNE 13 15 7 8 1016.9 - 0.0
03/11:00pm 15.1 15.4 14.6 97 0.3 SW 6 9 3 5 1017.1 - 0.0
03/10:33pm 15.5 16.0 14.9 96 0.3 SW 6 9 3 5 1017.5 - 0.0
03/10:30pm 14.8 14.7 13.8 94 0.6 SW 7 9 4 5 1017.5 - 0.0
03/10:03pm 16.7 16.8 16.5 99 0.1 SW 11 17 6 9 1017.3 - 0.0
03/10:00pm 16.6 16.7 16.4 99 0.1 SW 11 17 6 9 1017.5 - 0.0
03/09:30pm 16.0 16.7 15.5 97 0.3 N 6 7 3 4 1017.1 - 0.0
03/09:03pm 16.5 16.9 16.2 98 0.2 N 9 11 5 6 1017.1 - 0.0
03/09:00pm 16.6 17.0 16.4 99 0.1 N 9 11 5 6 1017.1 1017.1 0.0
03/08:55pm 17.0 17.6 16.7 98 0.2 N 9 9 5 5 1017.2 - 0.0
03/08:30pm 16.7 17.4 16.2 97 0.3 N 7 9 4 5 1017.3 - 0.0
03/08:10pm 17.0 17.9 16.2 95 0.5 N 6 7 3 4 1017.2 - 0.0
03/08:00pm 17.3 18.2 16.5 95 0.5 N 7 9 4 5 1017.2 - 0.0
03/07:30pm 17.6 18.1 16.5 93 0.7 N 9 11 5 6 1017.0 - 0.0
03/07:00pm 17.9 17.8 16.1 89 1.1 N 11 13 6 7 1017.0 - 0.0
03/06:30pm 18.4 18.1 15.5 83 1.7 N 11 15 6 8 1016.8 - 0.0
03/06:00pm 19.2 18.0 15.1 77 2.4 N 15 22 8 12 1016.6 1016.6 0.0
03/05:30pm 20.1 18.3 14.5 70 3.3 N 17 20 9 11 1016.3 - 0.0
03/05:00pm 21.3 18.9 13.7 62 4.4 N 19 28 10 15 1016.1 - 0.0
03/04:30pm 22.4 19.4 12.6 54 5.6 N 20 28 11 15 1015.8 - 0.0
03/04:00pm 23.3 20.6 12.9 52 6.0 N 19 26 10 14 1015.8 - 0.0
03/03:30pm 24.2 21.6 13.7 52 6.1 N 20 30 11 16 1015.8 - 0.0
03/03:00pm 24.3 21.8 14.1 53 6.0 N 20 26 11 14 1015.7 1015.7 0.0
03/02:30pm 25.2 22.9 14.0 49 6.6 N 19 28 10 15 1015.8 - 0.0
03/02:00pm 26.2 24.7 15.3 51 6.6 N 17 24 9 13 1016.0 - 0.0
03/01:30pm 26.0 23.8 12.1 42 8.0 NNW 15 24 8 13 1016.3 - 0.0
03/01:00pm 25.4 24.0 13.3 47 7.1 NW 13 22 7 12 1016.7 - 0.0
03/12:30pm 25.2 24.0 14.0 49 6.6 N 13 22 7 12 1017.2 - 0.0
03/12:00pm 24.3 22.9 13.5 51 6.3 NNW 13 19 7 10 1018.0 1018.0 0.0
03/11:30am 24.3 22.5 13.2 50 6.4 NNW 15 26 8 14 1018.6 - 0.0
03/11:00am 23.9 21.1 13.2 51 6.2 N 20 32 11 17 1019.1 - 0.0
03/10:30am 23.4 20.9 14.1 56 5.5 N 20 26 11 14 1019.6 - 0.0
03/10:00am 20.8 21.1 16.0 74 2.9 N 9 13 5 7 1020.3 - 0.0
03/09:30am 19.5 20.5 16.9 85 1.6 NNW 7 11 4 6 1020.6 - 0.0
03/09:00am 16.1 17.7 14.8 92 0.7 CALM 0 0 0 0 1020.6 1020.6 0.0
03/08:44am 15.1 16.5 14.5 96 0.3 CALM 0 0 0 0 1020.3 - 0.0
03/08:36am 14.5 15.8 14.0 97 0.3 CALM 0 4 0 2 1020.3 - 0.0
03/08:30am 14.2 15.5 14.0 99 0.1 CALM 0 0 0 0 1020.4 - 0.0
03/08:00am 13.0 13.9 12.8 99 0.1 CALM 0 0 0 0 1020.3 - 0.0
03/07:30am 12.0 12.6 11.8 99 0.1 CALM 0 0 0 0 1020.0 - 0.0
03/07:00am 11.6 12.0 11.4 99 0.1 CALM 0 0 0 0 1019.8 - 0.0
03/06:30am 11.5 11.9 11.3 99 0.1 CALM 0 0 0 0 1019.7 - 0.0
03/06:00am 11.3 11.7 11.1 99 0.1 CALM 0 0 0 0 1019.6 1019.6 0.0
03/05:30am 10.9 11.1 10.6 98 0.2 CALM 0 0 0 0 1019.4 - 0.0
03/05:00am 10.4 10.4 9.9 97 0.3 CALM 0 0 0 0 1019.3 - 0.0
03/04:30am 10.6 10.7 10.3 98 0.2 CALM 0 0 0 0 1019.2 - 0.0
03/04:00am 10.9 11.1 10.7 99 0.1 CALM 0 4 0 2 1019.2 - 0.0
03/03:30am 10.1 10.0 9.6 97 0.3 CALM 0 0 0 0 1019.3 - 0.0
03/03:08am 10.1 10.0 9.5 96 0.3 CALM 0 0 0 0 1019.3 - 0.0
03/03:04am 10.4 10.4 9.8 96 0.3 CALM 0 0 0 0 1019.3 - 0.0
03/03:00am 10.3 10.3 9.7 96 0.3 CALM 0 0 0 0 1019.3 1019.3 0.0
03/02:30am 10.5 10.6 10.0 97 0.3 CALM 0 0 0 0 1019.4 - 0.0
03/02:00am 10.0 9.8 9.1 94 0.4 CALM 0 0 0 0 1019.6 - 0.0
03/01:47am 10.6 10.7 10.0 96 0.3 CALM 0 0 0 0 1019.7 - 0.0
03/01:35am 10.8 10.9 10.3 97 0.3 CALM 0 0 0 0 1019.7 - 0.0
03/01:30am 11.0 11.2 10.5 97 0.3 CALM 0 0 0 0 1019.8 - 0.0
03/01:23am 11.2 11.4 10.7 97 0.3 CALM 0 0 0 0 1019.8 - 0.0
03/01:00am 11.3 11.6 11.0 98 0.2 CALM 0 0 0 0 1020.1 - 0.0
03/12:54am 11.3 11.6 10.8 97 0.3 CALM 0 0 0 0 1020.1 - 0.0
03/12:30am 10.7 10.6 9.6 93 0.6 CALM 0 0 0 0 1020.3 - 0.0
03/12:25am 11.0 11.1 10.1 94 0.5 CALM 0 0 0 0 1020.3 - 0.0
03/12:00am 12.1 12.7 11.8 98 0.2 CALM 0 0 0 0 1020.3 1020.3 0.0
 
Date/Time
EST
Temp
°C
App
Temp
°C
Dew
Point
Rel
Hum
%
Delta-T
°C
Wind Press
QNH
hPa
Press
MSL
hPa
Rain
since 9 am
mm
Dir
 
Spd
km/h
Gust
km/h
Spd
kts
Gust
kts
02/11:30pm 12.2 11.6 11.7 97 0.3 N 6 6 3 3 1020.6 - 0.0
02/11:16pm 11.1 10.1 10.2 94 0.5 N 6 6 3 3 1020.7 - 0.0
02/11:00pm 10.8 9.6 9.4 91 0.7 N 6 6 3 3 1020.7 - 0.0
02/10:30pm 12.0 11.2 11.2 95 0.4 N 6 6 3 3 1020.6 - 0.0
02/10:00pm 12.0 12.4 11.2 95 0.4 CALM 0 0 0 0 1020.9 - 0.0
02/09:30pm 12.1 12.5 11.2 94 0.5 CALM 0 0 0 0 1020.9 - 0.0
02/09:00pm 12.5 12.9 11.2 92 0.7 CALM 0 0 0 0 1021.0 1021.0 0.0
02/08:44pm 12.8 12.1 11.5 92 0.7 N 6 6 3 3 1021.0 - 0.0
02/08:30pm 13.3 12.9 12.4 94 0.5 N 6 7 3 4 1021.1 - 0.0
02/08:00pm 13.5 12.8 12.1 91 0.8 N 7 9 4 5 1021.0 - 0.0
02/07:30pm 13.7 12.8 10.5 81 1.7 N 6 7 3 4 1020.7 - 0.0
02/07:00pm 16.3 15.4 12.7 79 2.0 N 9 9 5 5 1020.6 - 0.0
02/06:30pm 16.8 16.1 11.9 73 2.7 N 7 7 4 4 1020.4 - 0.0
02/06:00pm 18.3 16.8 11.8 66 3.6 NNE 11 15 6 8 1020.0 1020.0 0.0
02/05:30pm 19.5 17.6 11.8 61 4.3 N 13 17 7 9 1019.8 - 0.0
02/05:00pm 21.3 19.0 11.6 54 5.4 N 15 20 8 11 1019.7 - 0.0
02/04:30pm 22.5 19.6 10.9 48 6.4 N 17 24 9 13 1019.6 - 0.0

Other Formats:

Comma delimited format used in spreadsheet applications
http://www.bom.gov.au/fwo/IDQ60801/IDQ60801.94567.axf

JavaScript Object Notation format (JSON) in row-major order
http://www.bom.gov.au/fwo/IDQ60801/IDQ60801.94567.json